createdAt,value
2023-03-28T00:02:50.390Z,102167.16
2023-03-28T00:06:54.114Z,102161.13
2023-03-28T00:11:04.744Z,102166.47
2023-03-28T00:15:09.527Z,102171.84
2023-03-28T00:19:16.474Z,102170.59
2023-03-28T00:23:19.236Z,102173.56
2023-03-28T00:27:22.118Z,102176.22
2023-03-28T00:31:27.190Z,102174.53
2023-03-28T00:35:29.956Z,102172.72
2023-03-28T00:39:33.233Z,102177.94
2023-03-28T00:43:39.122Z,102171.88
2023-03-28T00:47:45.777Z,102173.56
2023-03-28T00:51:52.266Z,102170.19
2023-03-28T00:55:59.085Z,102177.09
2023-03-28T01:00:02.253Z,102172.28
2023-03-28T01:04:10.203Z,102175.97
2023-03-28T01:08:16.797Z,102174.69
2023-03-28T01:12:21.300Z,102168.50
2023-03-28T01:16:24.346Z,102172.03
2023-03-28T01:20:40.023Z,102171.59
2023-03-28T01:25:07.780Z,102174.75
2023-03-28T01:30:10.158Z,102174.03
2023-03-28T01:34:57.043Z,102175.03
2023-03-28T01:39:10.350Z,102170.66
2023-03-28T01:43:25.700Z,102179.53
2023-03-28T01:47:38.046Z,102174.47
2023-03-28T01:51:56.394Z,102178.00
2023-03-28T01:56:05.641Z,102167.97
2023-03-28T02:00:15.626Z,102177.00
2023-03-28T02:04:39.526Z,102169.66
2023-03-28T02:08:46.321Z,102162.47
2023-03-28T02:13:10.247Z,102171.22
2023-03-28T02:17:23.586Z,102167.25
2023-03-28T02:22:08.186Z,102162.13
2023-03-28T02:26:29.694Z,102165.38
2023-03-28T02:30:55.292Z,102159.47
2023-03-28T02:34:58.388Z,102160.16
2023-03-28T02:39:19.643Z,102151.81
2023-03-28T02:43:37.238Z,102159.88
2023-03-28T02:47:52.070Z,102160.31
2023-03-28T02:52:09.225Z,102164.28
2023-03-28T02:56:19.184Z,102163.03
2023-03-28T03:00:49.539Z,102167.13
2023-03-28T03:04:57.562Z,102174.06
2023-03-28T03:09:00.867Z,102172.66
2023-03-28T03:13:03.650Z,102163.06
2023-03-28T03:17:07.152Z,102167.03
2023-03-28T03:21:11.225Z,102151.25
2023-03-28T03:25:18.575Z,102155.19
2023-03-28T03:29:38.522Z,102162.53
2023-03-28T03:33:44.616Z,102166.06
2023-03-28T03:37:50.580Z,102158.31
2023-03-28T03:41:53.287Z,102168.31
2023-03-28T03:45:57.706Z,102168.63
2023-03-28T03:50:03.703Z,102166.50
2023-03-28T03:54:11.636Z,102167.78
2023-03-28T03:58:15.519Z,102163.72
2023-03-28T04:02:18.933Z,102168.34
2023-03-28T04:06:30.475Z,102168.34
2023-03-28T04:10:34.825Z,102175.41
2023-03-28T04:14:37.984Z,102176.13
2023-03-28T04:18:59.519Z,102177.09
2023-03-28T04:23:05.660Z,102183.72
2023-03-28T04:27:10.701Z,102183.88
2023-03-28T04:31:13.933Z,102181.88
2023-03-28T04:35:36.607Z,102190.06
2023-03-28T04:39:41.701Z,102190.47
2023-03-28T04:44:04.274Z,102191.31
2023-03-28T04:48:13.545Z,102193.88
2023-03-28T04:52:16.910Z,102199.09
2023-03-28T04:56:23.378Z,102208.41
2023-03-28T05:00:28.052Z,102210.78
2023-03-28T05:04:40.358Z,102215.16
2023-03-28T05:08:44.778Z,102209.22
2023-03-28T05:12:47.846Z,102215.44
2023-03-28T05:16:53.628Z,102220.34
2023-03-28T05:21:14.908Z,102222.75
2023-03-28T05:25:17.762Z,102224.75
2023-03-28T05:29:20.698Z,102230.50
2023-03-28T05:33:25.618Z,102231.75
2023-03-28T05:37:28.809Z,102228.66
2023-03-28T05:41:31.756Z,102239.66
2023-03-28T05:45:34.506Z,102234.00
2023-03-28T05:49:49.089Z,102238.63
2023-03-28T05:53:52.303Z,102234.25
2023-03-28T05:57:55.930Z,102233.78
2023-03-28T06:02:01.483Z,102234.94
2023-03-28T06:06:06.150Z,102237.78
2023-03-28T06:10:10.266Z,102240.31
2023-03-28T06:14:13.679Z,102239.31
2023-03-28T06:18:16.967Z,102241.56
2023-03-28T06:22:23.336Z,102258.50
2023-03-28T06:26:32.347Z,102255.97
2023-03-28T06:30:35.297Z,102259.50
2023-03-28T06:34:38.054Z,102271.19
2023-03-28T06:38:42.170Z,102260.75
2023-03-28T06:42:44.954Z,102265.28
2023-03-28T06:47:08.160Z,102261.75
2023-03-28T06:51:12.775Z,102267.53
2023-03-28T06:55:17.543Z,102269.75
2023-03-28T06:59:20.247Z,102276.38
2023-03-28T07:03:30.000Z,102279.50
2023-03-28T07:07:33.911Z,102275.75
2023-03-28T07:11:38.049Z,102271.78
2023-03-28T07:15:41.155Z,102278.34
2023-03-28T07:19:45.309Z,102263.44
2023-03-28T07:23:48.259Z,102260.81
2023-03-28T07:27:56.560Z,102262.13
2023-03-28T07:31:59.362Z,102273.34
2023-03-28T07:36:08.663Z,102270.81
2023-03-28T07:40:13.003Z,102267.44
2023-03-28T07:44:18.560Z,102266.59
2023-03-28T07:48:21.795Z,102277.63
2023-03-28T07:52:24.515Z,102285.66
2023-03-28T07:56:27.714Z,102289.28
2023-03-28T08:00:52.402Z,102283.22
2023-03-28T08:05:13.647Z,102286.75
2023-03-28T08:09:17.917Z,102294.97
2023-03-28T08:13:24.352Z,102290.63
2023-03-28T08:17:28.655Z,102286.44
2023-03-28T08:21:32.734Z,102288.97
2023-03-28T08:25:35.414Z,102286.97
2023-03-28T08:29:38.420Z,102285.94
2023-03-28T08:33:44.005Z,102292.22
2023-03-28T08:37:47.708Z,102290.66
2023-03-28T08:42:05.942Z,102284.53
2023-03-28T08:46:14.050Z,102279.22
2023-03-28T08:50:23.600Z,102278.78
2023-03-28T08:54:32.307Z,102280.97
2023-03-28T08:58:42.483Z,102280.47
2023-03-28T09:02:45.467Z,102281.31
2023-03-28T09:06:58.345Z,102273.44
2023-03-28T09:11:08.489Z,102280.50
2023-03-28T09:15:25.241Z,102273.88
2023-03-28T09:19:48.725Z,102275.31
2023-03-28T09:24:47.962Z,102272.88
2023-03-28T09:28:58.242Z,102264.41
2023-03-28T09:33:06.438Z,102268.84
2023-03-28T09:37:22.629Z,102262.88
2023-03-28T09:41:34.282Z,102263.97
2023-03-28T09:46:00.359Z,102262.69
2023-03-28T09:50:22.106Z,102260.41
2023-03-28T09:54:36.100Z,102253.22
2023-03-28T09:58:51.430Z,102251.47
2023-03-28T10:02:58.841Z,102257.66
2023-03-28T10:07:30.415Z,102253.28
2023-03-28T10:11:48.783Z,102249.88
2023-03-28T10:15:57.800Z,102250.41
2023-03-28T10:20:17.443Z,102253.69
2023-03-28T10:24:23.441Z,102245.75
2023-03-28T10:28:33.894Z,102249.84
2023-03-28T10:32:38.341Z,102239.09
2023-03-28T10:36:57.913Z,102237.72
2023-03-28T10:41:13.469Z,102231.63
2023-03-28T10:45:33.439Z,102221.59
2023-03-28T10:49:44.303Z,102226.16
2023-03-28T10:54:02.140Z,102225.00
2023-03-28T10:58:16.940Z,102224.47
2023-03-28T11:02:56.698Z,102220.34
2023-03-28T11:07:11.202Z,102216.78
2023-03-28T11:11:52.821Z,102208.66
2023-03-28T11:16:01.643Z,102195.13
2023-03-28T11:20:45.377Z,102189.97
2023-03-28T11:24:58.557Z,102184.06
2023-03-28T11:29:40.150Z,102178.84
2023-03-28T11:33:56.406Z,102172.00
2023-03-28T11:38:05.212Z,102157.31
2023-03-28T11:42:20.639Z,102147.84
2023-03-28T11:46:30.815Z,102132.84
2023-03-28T11:50:46.106Z,102125.06
2023-03-28T11:55:07.637Z,102127.00
2023-03-28T11:59:15.563Z,102110.94
2023-03-28T12:03:25.625Z,102102.25
2023-03-28T12:07:38.515Z,102094.09
2023-03-28T12:12:06.154Z,102092.72
2023-03-28T12:16:15.828Z,102090.25
2023-03-28T12:20:29.203Z,102074.59
2023-03-28T12:24:42.977Z,102073.22
2023-03-28T12:28:54.182Z,102068.88
2023-03-28T12:33:09.725Z,102052.16
2023-03-28T12:37:26.252Z,102059.91
2023-03-28T12:41:37.227Z,102053.63
2023-03-28T12:45:44.365Z,102048.19
2023-03-28T12:49:53.410Z,102037.09
2023-03-28T12:54:08.343Z,102037.50
2023-03-28T12:58:20.350Z,102028.09
2023-03-28T13:02:34.248Z,102014.06
2023-03-28T13:06:47.380Z,102016.16
2023-03-28T13:11:06.454Z,102014.28
2023-03-28T13:15:28.588Z,102005.28
2023-03-28T13:19:51.678Z,101990.41
2023-03-28T13:23:55.850Z,101996.06
2023-03-28T13:28:01.342Z,101980.59
2023-03-28T13:32:06.729Z,101982.06
2023-03-28T13:36:28.596Z,101982.69
2023-03-28T13:40:48.108Z,101982.47
2023-03-28T13:44:55.293Z,101959.66
2023-03-28T13:49:06.006Z,101964.28
2023-03-28T13:53:09.004Z,101958.00
2023-03-28T13:57:18.140Z,101947.94
2023-03-28T14:01:24.641Z,101942.47
2023-03-28T14:05:29.590Z,101934.94
2023-03-28T14:09:34.377Z,101931.41
2023-03-28T14:13:38.828Z,101937.66
2023-03-28T14:17:41.675Z,101927.41
2023-03-28T14:21:45.068Z,101916.13
2023-03-28T14:25:47.834Z,101909.63
2023-03-28T14:29:56.149Z,101914.84
2023-03-28T14:33:59.477Z,101905.25
2023-03-28T14:38:05.528Z,101907.09
2023-03-28T14:42:13.299Z,101898.13
2023-03-28T14:46:18.241Z,101903.53
2023-03-28T14:50:22.399Z,101894.16
2023-03-28T14:54:29.633Z,101874.91
2023-03-28T14:58:32.438Z,101875.56
2023-03-28T15:02:41.566Z,101873.28
2023-03-28T15:06:44.307Z,101865.53
2023-03-28T15:10:50.832Z,101859.91
2023-03-28T15:14:53.824Z,101848.84
2023-03-28T15:19:06.806Z,101838.78
2023-03-28T15:23:16.821Z,101823.94
2023-03-28T15:27:26.956Z,101816.63
2023-03-28T15:31:30.169Z,101801.59
2023-03-28T15:35:39.518Z,101792.41
2023-03-28T15:39:43.722Z,101797.81
2023-03-28T15:44:00.324Z,101788.63
2023-03-28T15:48:03.230Z,101774.66
2023-03-28T15:52:16.152Z,101764.16
2023-03-28T15:56:24.268Z,101758.94
2023-03-28T16:00:38.253Z,101757.88
2023-03-28T16:04:40.934Z,101748.72
2023-03-28T16:08:47.048Z,101749.56
2023-03-28T16:12:51.394Z,101743.47
2023-03-28T16:17:28.779Z,101738.47
2023-03-28T16:21:43.921Z,101744.72
2023-03-28T16:25:48.047Z,101750.56
2023-03-28T16:29:51.076Z,101744.06
2023-03-28T16:33:53.761Z,101747.00
2023-03-28T16:37:56.879Z,101731.94
2023-03-28T16:42:00.890Z,101721.31
2023-03-28T16:46:03.869Z,101724.44
2023-03-28T16:50:09.227Z,101724.03
2023-03-28T16:54:12.014Z,101718.16
2023-03-28T16:58:16.027Z,101715.88
2023-03-28T17:02:21.510Z,101707.50
2023-03-28T17:06:24.932Z,101703.34
2023-03-28T17:10:29.383Z,101703.34
2023-03-28T17:14:33.631Z,101706.47
2023-03-28T17:18:37.395Z,101699.97
2023-03-28T17:22:42.408Z,101698.53
2023-03-28T17:26:45.188Z,101693.72
2023-03-28T17:30:49.413Z,101691.63
2023-03-28T17:34:52.251Z,101687.84
2023-03-28T17:38:56.681Z,101679.91
2023-03-28T17:42:59.361Z,101669.88
2023-03-28T17:47:03.644Z,101671.31
2023-03-28T17:51:07.476Z,101663.41
2023-03-28T17:55:10.491Z,101660.06
2023-03-28T17:59:13.693Z,101659.19
2023-03-28T18:03:17.912Z,101658.50
2023-03-28T18:07:32.796Z,101652.06
2023-03-28T18:11:39.276Z,101638.66
2023-03-28T18:15:42.971Z,101644.91
2023-03-28T18:19:47.092Z,101637.84
2023-03-28T18:23:50.325Z,101635.13
2023-03-28T18:27:53.080Z,101629.91
2023-03-28T18:31:55.794Z,101617.41
2023-03-28T18:36:00.126Z,101603.03
2023-03-28T18:40:07.180Z,101610.50
2023-03-28T18:44:11.612Z,101609.03
2023-03-28T18:48:15.265Z,101600.69
2023-03-28T18:52:19.502Z,101604.66
2023-03-28T18:56:22.768Z,101607.16
2023-03-28T19:00:25.579Z,101614.66
2023-03-28T19:04:28.536Z,101601.31
2023-03-28T19:08:32.878Z,101592.97
2023-03-28T19:12:36.403Z,101597.34
2023-03-28T19:16:39.127Z,101596.53
2023-03-28T19:20:42.134Z,101591.53
2023-03-28T19:24:46.310Z,101589.81
2023-03-28T19:28:49.565Z,101586.91
2023-03-28T19:32:52.394Z,101582.50
2023-03-28T19:36:55.091Z,101585.41
2023-03-28T19:40:59.839Z,101576.47
2023-03-28T19:45:02.512Z,101571.88
2023-03-28T19:49:07.002Z,101574.81
2023-03-28T19:53:09.880Z,101567.28
2023-03-28T19:57:14.257Z,101560.84
2023-03-28T20:01:17.015Z,101555.44
2023-03-28T20:05:20.232Z,101554.34
2023-03-28T20:09:24.090Z,101555.13
2023-03-28T20:13:28.286Z,101552.78
2023-03-28T20:17:31.254Z,101552.56
2023-03-28T20:21:34.037Z,101557.16
2023-03-28T20:25:36.732Z,101545.03
2023-03-28T20:29:42.336Z,101546.50
2023-03-28T20:33:45.137Z,101546.69
2023-03-28T20:37:55.506Z,101542.31
2023-03-28T20:42:05.733Z,101540.88
2023-03-28T20:46:12.665Z,101559.34
2023-03-28T20:50:16.097Z,101550.16
2023-03-28T20:54:21.736Z,101550.78
2023-03-28T20:58:24.464Z,101564.47
2023-03-28T21:02:33.318Z,101559.03
2023-03-28T21:06:38.196Z,101550.25
2023-03-28T21:10:41.246Z,101548.56
2023-03-28T21:14:43.981Z,101546.25
2023-03-28T21:18:48.480Z,101524.56
2023-03-28T21:22:51.243Z,101536.41
2023-03-28T21:26:53.961Z,101536.38
2023-03-28T21:30:58.437Z,101533.19
2023-03-28T21:35:04.104Z,101521.53
2023-03-28T21:39:07.863Z,101510.47
2023-03-28T21:43:11.164Z,101512.34
2023-03-28T21:47:14.143Z,101507.09
2023-03-28T21:51:18.888Z,101509.06
2023-03-28T21:55:21.616Z,101511.16
2023-03-28T21:59:24.323Z,101515.47
2023-03-28T22:03:27.501Z,101516.06
2023-03-28T22:07:31.632Z,101508.34
2023-03-28T22:11:35.186Z,101507.69
2023-03-28T22:15:37.979Z,101509.16
2023-03-28T22:19:40.831Z,101505.63
2023-03-28T22:23:47.249Z,101501.25
2023-03-28T22:27:50.355Z,101506.28
2023-03-28T22:31:53.109Z,101512.69
2023-03-28T22:35:57.850Z,101491.63
2023-03-28T22:40:02.102Z,101477.47
2023-03-28T22:44:05.024Z,101479.16
2023-03-28T22:48:14.136Z,101473.75
2023-03-28T22:52:16.897Z,101477.41
2023-03-28T22:56:21.253Z,101468.41
2023-03-28T23:00:24.491Z,101465.06
2023-03-28T23:04:27.382Z,101460.69
2023-03-28T23:08:31.043Z,101455.94
2023-03-28T23:12:35.218Z,101451.19
2023-03-28T23:16:38.320Z,101443.88
2023-03-28T23:20:41.058Z,101435.31
2023-03-28T23:24:43.691Z,101423.88
2023-03-28T23:28:47.739Z,101411.97
2023-03-28T23:32:50.662Z,101408.25
2023-03-28T23:36:57.963Z,101401.97
2023-03-28T23:41:00.997Z,101393.66
2023-03-28T23:45:05.728Z,101382.22
2023-03-28T23:49:09.083Z,101387.41
2023-03-28T23:53:11.927Z,101377.03
2023-03-28T23:57:14.817Z,101367.25
